Terminal Aerodrome Forecast
Issued by NWS Cleveland, OH

Home | Current Version | Previous Version | Graphics & Text | Print | Product List | Glossary On
Versions: 1 2 3 4 5 6 7 8 9 10 11 12 13 14 15 16
000
FTUS41 KCLE 292352
TAFYNG
TAF
KYNG 292352Z 3000/3024 11006KT P6SM -SHRA SCT025 OVC050
      TEMPO 3000/3002 5SM -SHRA BR OVC025
     FM300300 09008KT 5SM -SHRA SCT015 OVC025
      TEMPO 3003/3007 2SM -SHRA OVC015
     FM300700 17006KT 3SM BR BKN007 OVC015
     FM301500 20008KT P6SM OVC015
     FM302000 22010KT P6SM -SHRA OVC025
      TEMPO 3020/3024 3SM TSRA OVC015CB=

USA.gov is the U.S. government's official web portal to all federal, state and local government web resources and services.